CW5397 Weather Reports


Display with metric or nautical units.
time (UTC)temp
F
wind
direction
speed
MPH
gust
MPH
rain 1hr
in
rain 24hr
in
rain mn
in
humidity
%
barometer
mb
20181016075132 56 195 0.0 0.0 0.00 0.14 0.00 100 1022.1
20181016074142 56 192 0.0 0.0 0.00 0.14 0.00 96 1022.0
20181016073142 56 192 0.0 0.0 0.00 0.14 0.00 96 1022.0
20181016072144 56 192 0.0 0.0 0.00 0.14 0.00 95 1021.9
20181016071135 56 192 0.0 0.0 0.00 0.14 0.00 95 1022.1
20181016070129 56 192 0.0 3.0 0.00 0.14 0.00 95 1022.1
20181016065140 57 212 0.0 1.0 0.00 0.14 0.00 95 1021.9
20181016064142 57 170 0.0 2.0 0.00 0.14 0.00 95 1021.9
20181016063148 57 212 1.0 2.0 0.00 0.14 0.00 96 1021.9
20181016062128 57 164 1.0 2.0 0.00 0.14 0.00 97 1021.9
20181016061143 57 166 1.0 4.0 0.00 0.14 0.00 97 1021.6
20181016060134 58 188 0.0 5.0 0.00 0.14 0.00 97 1021.6
20181016055128 58 217 1.0 5.0 0.00 0.14 0.00 97 1021.5
20181016054141 58 155 0.0 4.0 0.00 0.14 0.00 98 1021.1
20181016053134 57 25 0.0 0.0 0.00 0.14 0.00 97 1021.1
20181016052136 58 25 0.0 0.0 0.00 0.14 0.00 97 1020.8
20181016051141 58 25 0.0 0.0 0.00 0.14 0.00 97 1020.8
20181016050143 59 25 0.0 0.0 0.00 0.14 0.00 97 1020.8
20181016045127 59 25 0.0 0.0 0.00 0.14 0.00 97 1020.9
20181016044129 59 25 0.0 0.0 0.00 0.14 0.00 97 1021.1
20181016043134 59 25 0.0 0.0 0.00 0.14 0.00 97 1021.1
20181016042132 59 25 0.0 0.0 0.00 0.14 0.00 97 1021.1
20181016041131 59 25 0.0 0.0 0.00 0.14 0.00 97 1021.3
20181016040137 59 25 0.0 0.0 0.00 0.14 0.00 97 1021.3
20181016035140 60 25 0.0 0.0 0.00 0.14 0.14 97 1021.1
20181016034130 60 25 0.0 0.0 0.00 0.14 0.14 97 1020.7
20181016033134 60 25 0.0 0.0 0.00 0.14 0.14 97 1020.7
20181016032142 60 25 0.0 1.0 0.00 0.14 0.14 97 1020.3
20181016031139 60 107 0.0 0.0 0.00 0.14 0.14 97 1021.2
20181016030144 60 107 0.0 0.0 0.00 0.14 0.14 96 1021.2
20181016025136 60 107 0.0 0.0 0.00 0.14 0.14 96 1021.5
20181016024134 60 107 0.0 0.0 0.00 0.14 0.14 96 1021.5
20181016023144 61 107 0.0 0.0 0.00 0.14 0.14 96 1021.5
20181016022137 61 108 0.0 0.0 0.00 0.14 0.14 96 1021.7
20181016021134 61 107 0.0 0.0 0.00 0.14 0.14 96 1022.2
20181016020143 61 107 0.0 0.0 0.00 0.16 0.14 96 1022.2
20181016015141 61 107 0.0 0.0 0.00 0.16 0.14 96 1022.3
20181016014141 61 107 0.0 0.0 0.02 0.16 0.14 95 1022.1
20181016013134 61 141 0.0 0.0 0.03 0.16 0.14 95 1022.1
20181016012146 61 141 0.0 0.0 0.11 0.16 0.14 95 1022.5
20181016011143 62 139 0.0 0.0 0.13 0.16 0.14 94 1021.7
20181016010133 62 139 0.0 1.0 0.13 0.16 0.14 93 1021.7
20181016005138 62 231 1.0 6.0 0.13 0.16 0.14 92 1021.9
20181016004145 63 174 2.0 7.0 0.11 0.14 0.12 91 1022.5
20181016003130 64 181 4.0 12.0 0.10 0.13 0.11 91 1022.5
20181016002135 65 214 0.0 2.0 0.03 0.06 0.04 94 1021.6
20181016001139 65 252 0.0 0.0 0.00 0.03 0.01 94 1020.6
20181016000133 65 252 0.0 0.0 0.00 0.03 0.01 93 1020.6
20181015235152 65 252 0.0 0.0 0.00 0.03 0.01 93 1020.2
20181015234134 65 252 0.0 0.0 0.00 0.03 0.01 92 1020.4
20181015233141 65 252 0.0 0.0 0.00 0.03 0.01 92 1020.4
20181015232131 65 252 0.0 0.0 0.00 0.03 0.01 90 1020.0
20181015231147 66 252 0.0 0.0 0.00 0.03 0.01 90 1019.7
20181015230229 67 252 0.0 0.0 0.00 0.03 0.01 88 1019.7
20181015225141 68 252 0.0 0.0 0.00 0.03 0.01 85 1020.2
20181015224144 69 252 0.0 1.0 0.00 0.03 0.01 83 1020.1
20181015223136 70 238 0.0 1.0 0.00 0.03 0.01 82 1020.1
20181015222149 71 224 0.0 4.0 0.00 0.03 0.01 80 1019.8
20181015221130 72 241 1.0 2.0 0.00 0.03 0.01 77 1019.7
20181015220146 73 241 0.0 5.0 0.00 0.03 0.01 74 1019.7
20181015215136 74 257 2.0 4.0 0.00 0.03 0.01 71 1020.3
20181015214136 75 224 2.0 3.0 0.00 0.03 0.01 66 1020.0
20181015213128 76 212 1.0 9.0 0.00 0.03 0.01 64 1020.0
20181015212127 76 259 3.0 7.0 0.00 0.03 0.01 65 1020.2
20181015211135 75 162 1.0 4.0 0.00 0.03 0.01 71 1020.4
20181015210129 75 221 2.0 7.0 0.00 0.03 0.01 69 1020.4
20181015205130 75 206 2.0 6.0 0.00 0.03 0.01 66 1020.3
20181015204145 76 263 5.0 10.0 0.00 0.03 0.01 64 1020.3
20181015203129 76 219 4.0 11.0 0.00 0.03 0.01 64 1020.3
20181015202130 76 271 2.0 7.0 0.00 0.03 0.01 63 1020.3
20181015201137 76 271 3.0 10.0 0.00 0.03 0.01 63 1020.2
20181015200144 77 231 4.0 9.0 0.00 0.03 0.01 62 1020.2
20181015195136 77 288 5.0 12.0 0.00 0.03 0.01 64 1020.2
20181015194141 77 247 3.0 7.0 0.00 0.03 0.01 63 1020.5
20181015193127 77 252 2.0 11.0 0.00 0.03 0.01 64 1020.5
20181015192147 75 234 4.0 9.0 0.00 0.03 0.01 66 1020.7
20181015191130 76 238 3.0 10.0 0.00 0.03 0.01 63 1020.2
20181015190141 77 230 3.0 10.0 0.00 0.03 0.01 66 1020.2
20181015185125 76 238 2.0 5.0 0.00 0.03 0.01 72 1020.3
20181015184149 75 227 2.0 6.0 0.00 0.03 0.01 71 1020.5
20181015183137 75 226 4.0 7.0 0.00 0.03 0.01 73 1020.5
20181015182126 74 237 1.0 6.0 0.00 0.03 0.01 77 1020.8
20181015181135 73 245 2.0 3.0 0.00 0.03 0.01 78 1020.9
20181015180145 73 221 1.0 2.0 0.00 0.03 0.01 78 1020.9
20181015175132 73 270 1.0 3.0 0.00 0.03 0.01 76 1021.0
20181015174146 74 273 2.0 3.0 0.00 0.03 0.01 76 1021.3
20181015173138 74 221 0.0 2.0 0.00 0.03 0.01 78 1021.3
20181015172135 74 235 1.0 6.0 0.00 0.03 0.01 76 1021.3
20181015171135 74 205 1.0 2.0 0.00 0.03 0.01 79 1021.4
20181015170147 73 229 2.0 3.0 0.00 0.03 0.01 78 1021.4
20181015165145 73 224 0.0 3.0 0.00 0.03 0.01 79 1021.9
20181015164136 72 221 0.0 4.0 0.00 0.03 0.01 81 1022.0
20181015163141 72 205 1.0 3.0 0.00 0.03 0.01 82 1022.0
20181015161142 71 200 2.0 4.0 0.00 0.03 0.01 82 1022.3
20181015160132 70 215 1.0 4.0 0.00 0.03 0.01 84 1022.3
20181015155142 69 169 0.0 3.0 0.00 0.03 0.01 86 1022.5
20181015154128 69 233 0.0 2.0 0.00 0.03 0.01 86 1021.9
20181015153142 69 226 1.0 3.0 0.00 0.03 0.01 86 1021.9
20181015152133 67 211 0.0 3.0 0.00 0.03 0.01 88 1021.9
20181015151128 67 206 0.0 2.0 0.01 0.03 0.01 91 1022.2
20181015150147 66 198 0.0 3.0 0.01 0.04 0.01 92 1022.2
20181015145140 65 233 1.0 2.0 0.01 0.04 0.01 94 1022.5
20181015144130 65 215 0.0 0.0 0.01 0.04 0.01 95 1022.7
20181015143142 64 229 0.0 1.0 0.01 0.04 0.01 95 1022.7
20181015142132 63 236 1.0 3.0 0.01 0.04 0.01 97 1022.6
20181015141138 63 195 0.0 0.0 0.00 0.03 0.00 98 1022.6
20181015140130 62 195 0.0 1.0 0.00 0.07 0.00 98 1022.6
20181015135124 62 188 0.0 0.0 0.00 0.07 0.00 98 1022.5
20181015134142 61 30 0.0 0.0 0.00 0.07 0.00 98 1022.8
20181015133137 60 30 0.0 1.0 0.00 0.07 0.00 98 1022.8
20181015132130 59 27 0.0 0.0 0.00 0.07 0.00 98 1022.8
20181015131145 59 27 0.0 1.0 0.00 0.07 0.00 98 1022.1
20181015130128 58 27 0.0 0.0 0.00 0.07 0.00 98 1022.1
20181015125138 58 27 0.0 0.0 0.00 0.07 0.00 98 1022.0
20181015124138 57 27 0.0 0.0 0.00 0.07 0.00 98 1022.4
20181015123132 0 0.0 0.0 0.00 0.07 0.00 1022.4
20181015122131 0 0.0 0.0 0.00 0.07 0.00 1022.4
20181015121138 0 0.0 0.0 0.00 0.07 0.00 1022.3
20181015120134 0 0.0 0.0 0.00 0.07 0.00 1022.3
20181015115126 0 0.0 0.0 0.00 0.07 0.00 1022.1
20181015114127 0 0.0 0.0 0.00 0.07 0.00 1022.3
20181015113141 0 0.0 0.0 0.00 0.07 0.00 1022.3
20181015112127 0 0.0 0.0 0.00 0.07 0.00 1022.1
20181015111124 0 0.0 0.0 0.00 0.07 0.00 1021.8
20181015110146 0 0.0 0.0 0.00 0.07 0.00 1021.8
20181015105138 0 0.0 0.0 0.00 0.07 0.00 1021.7
20181015104128 0 0.0 0.0 0.00 0.07 0.00 1021.7
20181015103143 0 0.0 0.0 0.00 0.07 0.00 1021.7
20181015102136 0 0.0 0.0 0.00 0.07 0.00 1021.7
20181015101136 0 0.0 0.0 0.00 0.07 0.00 1021.5
20181015100139 0 0.0 0.0 0.00 0.07 0.00 1021.5
20181015095132 0 0.0 0.0 0.00 0.07 0.00 1021.5
20181015094131 0 0.0 0.0 0.00 0.07 0.00 1021.5
20181015093127 0 0.0 0.0 0.00 0.07 0.00 1021.5
20181015092140 0 0.0 0.0 0.00 0.07 0.00 1021.3
20181015091131 0 0.0 0.0 0.00 0.07 0.00 1021.3
20181015090153 0 0.0 0.0 0.00 0.07 0.00 1021.3
20181015085128 0 0.0 0.0 0.00 0.07 0.00 1021.4
20181015084138 0 0.0 0.0 0.00 0.07 0.00 1021.2
20181015083140 0 0.0 0.0 0.00 0.07 0.00 1021.2
20181015082138 0 0.0 0.0 0.00 0.07 0.00 1021.4
20181015081135 0 0.0 0.0 0.00 0.07 0.00 1021.3
20181015080145 0 0.0 0.0 0.00 0.07 0.00 1021.3